Marin Sunshine — WDE5919 — position and weather

sailwx.info

Track history (hours):
 
Tides and Currents Weather Stations Pressure Air Temp Water Temp Dewpoint Dewpoint Depression Visibility Wind Speed Wind Dir Waves Ship Positions

Marin Sunshine

Owner: Marine Express, alameda, CA. More information available from US FCC via Universal Licensing System and Coast Guard Vessel Documentation Center.

Last reported at 2016-Jun-26 17:31 UTC. Time now 2016-Jun-29 02:05 UTC.
Position N 37°57' W 121°20'.

MMSI: 367373280.

Date/timePositionNaut miles runAvg speedWind from/ knotsBaromVisibWave heightAir tempDewpointWater temp
2016-Jun-26 17:31N 37°57' W 121°20'0 0.3
2016-Jun-26 16:33N 37°57' W 121°20'2 1.6
2016-Jun-26 15:33N 37°58' W 121°22'  
2016-Jun-19 05:26N 37°57' W 121°22'0 0.5
2016-Jun-19 04:34N 37°57' W 121°21'0 0.4
2016-Jun-19 03:33N 37°57' W 121°22'1 0.0
2016-Jun-18 06:34N 37°57' W 121°21'1 0.7
2016-Jun-18 05:34N 37°57' W 121°20'2 2.4
2016-Jun-18 04:34N 37°58' W 121°23'1 1.3
2016-Jun-18 03:33N 37°57' W 121°22'0 0.0
2016-Jun-17 13:16N 37°57' W 121°22'0 0.2
2016-Jun-17 12:33N 37°58' W 121°22'  
Track history (hours):
 
Tides and Currents Weather Stations Pressure Air Temp Water Temp Dewpoint Dewpoint Depression Visibility Wind Speed Wind Dir Waves Ship Positions

Marin Sunshine

Owner: Marine Express, alameda, CA. More information available from US FCC via Universal Licensing System and Coast Guard Vessel Documentation Center.

Last reported at 2016-Jun-26 17:31 UTC. Time now 2016-Jun-29 02:05 UTC.
Position N 37°57' W 121°20'.

MMSI: 367373280.

Date/timePositionNaut miles runAvg speedWind from/ knotsBaromVisibWave heightAir tempDewpointWater temp
2016-Jun-26 17:31N 37°57' W 121°20'0 0.3
2016-Jun-26 16:33N 37°57' W 121°20'2 1.6
2016-Jun-26 15:33N 37°58' W 121°22'  
2016-Jun-19 05:26N 37°57' W 121°22'0 0.5
2016-Jun-19 04:34N 37°57' W 121°21'0 0.4
2016-Jun-19 03:33N 37°57' W 121°22'1 0.0
2016-Jun-18 06:34N 37°57' W 121°21'1 0.7
2016-Jun-18 05:34N 37°57' W 121°20'2 2.4
2016-Jun-18 04:34N 37°58' W 121°23'1 1.3
2016-Jun-18 03:33N 37°57' W 121°22'0 0.0
2016-Jun-17 13:16N 37°57' W 121°22'0 0.2
2016-Jun-17 12:33N 37°58' W 121°22'  

Dump ship's entire track history